sensor_id;sensor_type;location;lat;lon;timestamp;P1;durP1;ratioP1;P2;durP2;ratioP2
12591;SDS011;6361;52.120;5.108;2022-11-30T00:02:23;22.15;;;13.35;;
12591;SDS011;6361;52.120;5.108;2022-11-30T00:04:49;19.98;;;12.25;;
12591;SDS011;6361;52.120;5.108;2022-11-30T00:07:14;20.08;;;13.50;;
12591;SDS011;6361;52.120;5.108;2022-11-30T00:09:40;20.80;;;13.38;;
12591;SDS011;6361;52.120;5.108;2022-11-30T00:12:05;19.77;;;12.98;;
12591;SDS011;6361;52.120;5.108;2022-11-30T00:14:31;17.90;;;12.57;;
12591;SDS011;6361;52.120;5.108;2022-11-30T00:16:56;19.08;;;12.77;;
12591;SDS011;6361;52.120;5.108;2022-11-30T00:19:21;19.35;;;13.73;;
12591;SDS011;6361;52.120;5.108;2022-11-30T00:21:47;21.20;;;13.77;;
12591;SDS011;6361;52.120;5.108;2022-11-30T00:24:13;16.10;;;10.45;;
12591;SDS011;6361;52.120;5.108;2022-11-30T00:26:38;23.33;;;14.75;;
12591;SDS011;6361;52.120;5.108;2022-11-30T00:29:03;24.45;;;14.73;;
12591;SDS011;6361;52.120;5.108;2022-11-30T00:31:29;22.20;;;14.60;;
12591;SDS011;6361;52.120;5.108;2022-11-30T00:33:54;23.85;;;15.27;;
12591;SDS011;6361;52.120;5.108;2022-11-30T00:36:20;23.77;;;15.27;;
12591;SDS011;6361;52.120;5.108;2022-11-30T00:38:47;24.50;;;16.30;;
12591;SDS011;6361;52.120;5.108;2022-11-30T00:41:12;22.52;;;15.70;;
12591;SDS011;6361;52.120;5.108;2022-11-30T00:43:38;23.83;;;15.95;;
12591;SDS011;6361;52.120;5.108;2022-11-30T00:46:04;25.85;;;17.08;;
12591;SDS011;6361;52.120;5.108;2022-11-30T00:48:29;24.38;;;17.40;;
12591;SDS011;6361;52.120;5.108;2022-11-30T00:50:55;25.98;;;17.35;;
12591;SDS011;6361;52.120;5.108;2022-11-30T00:53:20;24.58;;;16.02;;
12591;SDS011;6361;52.120;5.108;2022-11-30T00:55:48;24.90;;;16.10;;
12591;SDS011;6361;52.120;5.108;2022-11-30T00:58:13;26.92;;;16.73;;
12591;SDS011;6361;52.120;5.108;2022-11-30T01:00:39;24.25;;;16.45;;
12591;SDS011;6361;52.120;5.108;2022-11-30T01:03:04;25.80;;;17.17;;
12591;SDS011;6361;52.120;5.108;2022-11-30T01:05:33;23.75;;;16.23;;
12591;SDS011;6361;52.120;5.108;2022-11-30T01:07:59;27.50;;;17.88;;
12591;SDS011;6361;52.120;5.108;2022-11-30T01:10:28;25.13;;;16.75;;
12591;SDS011;6361;52.120;5.108;2022-11-30T01:12:53;28.30;;;18.08;;
12591;SDS011;6361;52.120;5.108;2022-11-30T01:15:19;27.20;;;17.83;;
12591;SDS011;6361;52.120;5.108;2022-11-30T01:17:44;22.95;;;15.18;;
12591;SDS011;6361;52.120;5.108;2022-11-30T01:20:09;28.20;;;17.83;;
12591;SDS011;6361;52.120;5.108;2022-11-30T01:22:35;25.55;;;16.73;;
12591;SDS011;6361;52.120;5.108;2022-11-30T01:25:01;24.35;;;16.90;;
12591;SDS011;6361;52.120;5.108;2022-11-30T01:27:26;25.85;;;17.45;;
12591;SDS011;6361;52.120;5.108;2022-11-30T01:29:52;26.45;;;17.20;;
12591;SDS011;6361;52.120;5.108;2022-11-30T01:32:17;25.48;;;17.40;;
12591;SDS011;6361;52.120;5.108;2022-11-30T01:34:43;26.75;;;17.58;;
12591;SDS011;6361;52.120;5.108;2022-11-30T01:37:08;24.10;;;16.65;;
12591;SDS011;6361;52.120;5.108;2022-11-30T01:39:33;25.23;;;17.10;;
12591;SDS011;6361;52.120;5.108;2022-11-30T01:41:58;29.70;;;17.60;;
12591;SDS011;6361;52.120;5.108;2022-11-30T01:47:05;29.17;;;17.83;;
12591;SDS011;6361;52.120;5.108;2022-11-30T01:49:40;28.50;;;18.40;;
12591;SDS011;6361;52.120;5.108;2022-11-30T01:55:31;23.27;;;15.48;;
12591;SDS011;6361;52.120;5.108;2022-11-30T01:58:10;27.48;;;17.63;;
12591;SDS011;6361;52.120;5.108;2022-11-30T02:00:42;28.75;;;18.88;;
12591;SDS011;6361;52.120;5.108;2022-11-30T02:03:12;28.63;;;17.98;;
12591;SDS011;6361;52.120;5.108;2022-11-30T02:05:39;27.90;;;19.40;;
12591;SDS011;6361;52.120;5.108;2022-11-30T02:08:06;28.92;;;18.92;;
12591;SDS011;6361;52.120;5.108;2022-11-30T02:10:34;28.40;;;18.27;;
12591;SDS011;6361;52.120;5.108;2022-11-30T02:16:18;22.02;;;14.38;;
12591;SDS011;6361;52.120;5.108;2022-11-30T02:18:45;26.40;;;17.50;;
12591;SDS011;6361;52.120;5.108;2022-11-30T02:30:18;21.52;;;15.02;;
12591;SDS011;6361;52.120;5.108;2022-11-30T02:32:55;27.65;;;17.75;;
12591;SDS011;6361;52.120;5.108;2022-11-30T02:35:28;27.30;;;17.88;;
12591;SDS011;6361;52.120;5.108;2022-11-30T02:37:54;28.90;;;18.23;;
12591;SDS011;6361;52.120;5.108;2022-11-30T02:40:21;30.40;;;19.80;;
12591;SDS011;6361;52.120;5.108;2022-11-30T02:42:47;30.42;;;19.52;;
12591;SDS011;6361;52.120;5.108;2022-11-30T02:45:14;29.67;;;19.52;;
12591;SDS011;6361;52.120;5.108;2022-11-30T02:47:42;31.08;;;19.20;;
12591;SDS011;6361;52.120;5.108;2022-11-30T02:50:14;23.15;;;15.07;;
12591;SDS011;6361;52.120;5.108;2022-11-30T02:52:42;29.88;;;18.58;;
12591;SDS011;6361;52.120;5.108;2022-11-30T02:55:09;28.65;;;18.58;;
12591;SDS011;6361;52.120;5.108;2022-11-30T02:57:35;28.20;;;19.15;;
12591;SDS011;6361;52.120;5.108;2022-11-30T03:00:03;27.42;;;18.23;;
12591;SDS011;6361;52.120;5.108;2022-11-30T03:02:31;26.05;;;17.15;;
12591;SDS011;6361;52.120;5.108;2022-11-30T03:04:56;26.50;;;17.85;;
12591;SDS011;6361;52.120;5.108;2022-11-30T03:07:21;28.98;;;18.23;;
12591;SDS011;6361;52.120;5.108;2022-11-30T03:09:47;26.63;;;18.05;;
12591;SDS011;6361;52.120;5.108;2022-11-30T03:12:12;32.70;;;18.13;;
12591;SDS011;6361;52.120;5.108;2022-11-30T03:14:37;21.55;;;13.68;;
12591;SDS011;6361;52.120;5.108;2022-11-30T03:17:03;21.63;;;13.32;;
12591;SDS011;6361;52.120;5.108;2022-11-30T03:19:29;22.75;;;15.75;;
12591;SDS011;6361;52.120;5.108;2022-11-30T03:21:54;24.88;;;17.58;;
12591;SDS011;6361;52.120;5.108;2022-11-30T03:24:20;26.08;;;17.45;;
12591;SDS011;6361;52.120;5.108;2022-11-30T03:26:45;27.98;;;17.38;;
12591;SDS011;6361;52.120;5.108;2022-11-30T03:29:10;22.08;;;15.00;;
12591;SDS011;6361;52.120;5.108;2022-11-30T03:31:36;19.48;;;13.32;;
12591;SDS011;6361;52.120;5.108;2022-11-30T03:34:01;24.35;;;16.15;;
12591;SDS011;6361;52.120;5.108;2022-11-30T03:36:26;24.50;;;17.00;;
12591;SDS011;6361;52.120;5.108;2022-11-30T03:38:53;22.42;;;14.77;;
12591;SDS011;6361;52.120;5.108;2022-11-30T03:41:18;27.52;;;18.27;;
12591;SDS011;6361;52.120;5.108;2022-11-30T03:43:44;22.23;;;14.57;;
12591;SDS011;6361;52.120;5.108;2022-11-30T03:46:10;19.80;;;13.25;;
12591;SDS011;6361;52.120;5.108;2022-11-30T03:48:36;24.23;;;16.05;;
12591;SDS011;6361;52.120;5.108;2022-11-30T03:51:02;24.30;;;17.20;;
12591;SDS011;6361;52.120;5.108;2022-11-30T03:53:28;23.67;;;16.50;;
12591;SDS011;6361;52.120;5.108;2022-11-30T03:55:55;24.63;;;16.90;;
12591;SDS011;6361;52.120;5.108;2022-11-30T03:58:22;26.70;;;17.13;;
12591;SDS011;6361;52.120;5.108;2022-11-30T04:00:48;27.27;;;17.20;;
12591;SDS011;6361;52.120;5.108;2022-11-30T04:03:13;27.08;;;18.35;;
12591;SDS011;6361;52.120;5.108;2022-11-30T04:05:39;27.58;;;18.45;;
12591;SDS011;6361;52.120;5.108;2022-11-30T04:08:04;29.85;;;18.60;;
12591;SDS011;6361;52.120;5.108;2022-11-30T04:10:30;30.27;;;19.33;;
12591;SDS011;6361;52.120;5.108;2022-11-30T04:12:55;28.13;;;19.00;;
12591;SDS011;6361;52.120;5.108;2022-11-30T04:15:20;28.55;;;18.92;;
12591;SDS011;6361;52.120;5.108;2022-11-30T04:17:46;30.58;;;19.67;;
12591;SDS011;6361;52.120;5.108;2022-11-30T04:20:11;30.02;;;18.50;;
12591;SDS011;6361;52.120;5.108;2022-11-30T04:22:36;31.02;;;19.27;;
12591;SDS011;6361;52.120;5.108;2022-11-30T04:25:03;28.48;;;18.30;;
12591;SDS011;6361;52.120;5.108;2022-11-30T04:27:29;29.25;;;18.80;;
12591;SDS011;6361;52.120;5.108;2022-11-30T04:29:54;28.98;;;19.92;;
12591;SDS011;6361;52.120;5.108;2022-11-30T04:32:19;31.05;;;19.42;;
12591;SDS011;6361;52.120;5.108;2022-11-30T04:34:45;31.52;;;20.50;;
12591;SDS011;6361;52.120;5.108;2022-11-30T04:37:10;32.38;;;20.48;;
12591;SDS011;6361;52.120;5.108;2022-11-30T04:39:35;30.85;;;20.02;;
12591;SDS011;6361;52.120;5.108;2022-11-30T04:42:01;25.63;;;16.98;;
12591;SDS011;6361;52.120;5.108;2022-11-30T04:44:26;31.20;;;19.60;;
12591;SDS011;6361;52.120;5.108;2022-11-30T04:46:53;32.25;;;20.33;;
12591;SDS011;6361;52.120;5.108;2022-11-30T04:49:18;26.45;;;17.63;;
12591;SDS011;6361;52.120;5.108;2022-11-30T04:51:44;27.92;;;17.55;;
12591;SDS011;6361;52.120;5.108;2022-11-30T04:54:09;30.60;;;20.75;;
12591;SDS011;6361;52.120;5.108;2022-11-30T04:56:34;33.20;;;19.67;;
12591;SDS011;6361;52.120;5.108;2022-11-30T04:59:00;32.20;;;19.83;;
12591;SDS011;6361;52.120;5.108;2022-11-30T05:01:26;31.45;;;19.77;;
12591;SDS011;6361;52.120;5.108;2022-11-30T05:03:51;29.48;;;19.77;;
12591;SDS011;6361;52.120;5.108;2022-11-30T05:06:16;31.75;;;19.30;;
12591;SDS011;6361;52.120;5.108;2022-11-30T05:08:42;32.45;;;20.20;;
12591;SDS011;6361;52.120;5.108;2022-11-30T05:11:07;30.67;;;19.48;;
12591;SDS011;6361;52.120;5.108;2022-11-30T05:13:32;30.58;;;19.65;;
12591;SDS011;6361;52.120;5.108;2022-11-30T05:15:58;31.15;;;19.50;;
12591;SDS011;6361;52.120;5.108;2022-11-30T05:18:23;31.58;;;20.23;;
12591;SDS011;6361;52.120;5.108;2022-11-30T05:20:49;31.58;;;20.27;;
12591;SDS011;6361;52.120;5.108;2022-11-30T05:23:15;31.40;;;20.25;;
12591;SDS011;6361;52.120;5.108;2022-11-30T05:25:41;34.20;;;20.50;;
12591;SDS011;6361;52.120;5.108;2022-11-30T05:28:07;32.72;;;20.52;;
12591;SDS011;6361;52.120;5.108;2022-11-30T05:30:32;32.60;;;19.77;;
12591;SDS011;6361;52.120;5.108;2022-11-30T05:32:58;24.98;;;14.85;;
12591;SDS011;6361;52.120;5.108;2022-11-30T05:35:23;23.45;;;15.25;;
12591;SDS011;6361;52.120;5.108;2022-11-30T05:37:49;31.38;;;19.52;;
12591;SDS011;6361;52.120;5.108;2022-11-30T05:40:14;22.60;;;14.73;;
12591;SDS011;6361;52.120;5.108;2022-11-30T05:42:39;31.15;;;20.17;;
12591;SDS011;6361;52.120;5.108;2022-11-30T05:45:05;30.90;;;19.92;;
12591;SDS011;6361;52.120;5.108;2022-11-30T05:47:31;28.05;;;16.98;;
12591;SDS011;6361;52.120;5.108;2022-11-30T05:49:56;21.60;;;13.50;;
12591;SDS011;6361;52.120;5.108;2022-11-30T05:52:21;32.65;;;19.98;;
12591;SDS011;6361;52.120;5.108;2022-11-30T05:54:47;31.90;;;19.17;;
12591;SDS011;6361;52.120;5.108;2022-11-30T05:57:12;31.75;;;20.13;;
12591;SDS011;6361;52.120;5.108;2022-11-30T05:59:37;29.52;;;19.60;;
12591;SDS011;6361;52.120;5.108;2022-11-30T06:02:03;30.55;;;19.23;;
12591;SDS011;6361;52.120;5.108;2022-11-30T06:04:28;23.30;;;15.52;;
12591;SDS011;6361;52.120;5.108;2022-11-30T06:06:53;29.55;;;18.92;;
12591;SDS011;6361;52.120;5.108;2022-11-30T06:09:21;25.55;;;16.60;;
12591;SDS011;6361;52.120;5.108;2022-11-30T06:11:47;31.23;;;19.00;;
12591;SDS011;6361;52.120;5.108;2022-11-30T06:14:12;26.35;;;15.35;;
12591;SDS011;6361;52.120;5.108;2022-11-30T06:16:38;28.83;;;18.92;;
12591;SDS011;6361;52.120;5.108;2022-11-30T06:19:03;30.00;;;18.52;;
12591;SDS011;6361;52.120;5.108;2022-11-30T06:21:29;28.83;;;17.40;;
12591;SDS011;6361;52.120;5.108;2022-11-30T06:23:54;28.80;;;18.95;;
12591;SDS011;6361;52.120;5.108;2022-11-30T06:26:19;29.00;;;18.63;;
12591;SDS011;6361;52.120;5.108;2022-11-30T06:28:45;28.88;;;18.55;;
12591;SDS011;6361;52.120;5.108;2022-11-30T06:31:10;26.40;;;17.85;;
12591;SDS011;6361;52.120;5.108;2022-11-30T06:33:35;27.98;;;17.77;;
12591;SDS011;6361;52.120;5.108;2022-11-30T06:36:01;29.17;;;17.02;;
12591;SDS011;6361;52.120;5.108;2022-11-30T06:38:27;24.67;;;14.85;;
12591;SDS011;6361;52.120;5.108;2022-11-30T06:40:53;27.75;;;16.27;;
12591;SDS011;6361;52.120;5.108;2022-11-30T06:43:18;31.42;;;17.35;;
12591;SDS011;6361;52.120;5.108;2022-11-30T06:45:44;25.52;;;16.95;;
12591;SDS011;6361;52.120;5.108;2022-11-30T06:48:11;25.95;;;16.80;;
12591;SDS011;6361;52.120;5.108;2022-11-30T06:50:37;23.13;;;15.00;;
12591;SDS011;6361;52.120;5.108;2022-11-30T06:53:02;25.38;;;16.92;;
12591;SDS011;6361;52.120;5.108;2022-11-30T06:55:28;22.90;;;13.30;;
12591;SDS011;6361;52.120;5.108;2022-11-30T06:58:03;28.17;;;16.90;;
12591;SDS011;6361;52.120;5.108;2022-11-30T07:00:34;20.95;;;13.30;;
12591;SDS011;6361;52.120;5.108;2022-11-30T07:03:01;26.25;;;16.02;;
12591;SDS011;6361;52.120;5.108;2022-11-30T07:05:27;26.75;;;16.75;;
12591;SDS011;6361;52.120;5.108;2022-11-30T07:07:52;18.73;;;12.93;;
12591;SDS011;6361;52.120;5.108;2022-11-30T07:10:18;26.30;;;15.98;;
12591;SDS011;6361;52.120;5.108;2022-11-30T07:12:43;25.10;;;16.67;;
12591;SDS011;6361;52.120;5.108;2022-11-30T07:15:09;17.92;;;12.48;;
12591;SDS011;6361;52.120;5.108;2022-11-30T07:17:35;20.73;;;12.65;;
12591;SDS011;6361;52.120;5.108;2022-11-30T07:20:00;24.52;;;15.57;;
12591;SDS011;6361;52.120;5.108;2022-11-30T07:22:25;25.73;;;16.10;;
12591;SDS011;6361;52.120;5.108;2022-11-30T07:24:51;25.15;;;16.38;;
12591;SDS011;6361;52.120;5.108;2022-11-30T07:27:35;26.58;;;15.98;;
12591;SDS011;6361;52.120;5.108;2022-11-30T07:30:00;23.42;;;15.43;;
12591;SDS011;6361;52.120;5.108;2022-11-30T07:32:25;24.48;;;16.05;;
12591;SDS011;6361;52.120;5.108;2022-11-30T07:34:51;20.67;;;14.13;;
12591;SDS011;6361;52.120;5.108;2022-11-30T07:37:16;26.52;;;16.88;;
12591;SDS011;6361;52.120;5.108;2022-11-30T07:39:42;24.73;;;15.90;;
12591;SDS011;6361;52.120;5.108;2022-11-30T07:42:07;26.67;;;16.40;;
12591;SDS011;6361;52.120;5.108;2022-11-30T07:44:32;23.60;;;15.30;;
12591;SDS011;6361;52.120;5.108;2022-11-30T07:46:58;25.20;;;15.38;;
12591;SDS011;6361;52.120;5.108;2022-11-30T07:49:24;24.90;;;15.25;;
12591;SDS011;6361;52.120;5.108;2022-11-30T07:51:50;23.25;;;15.75;;
12591;SDS011;6361;52.120;5.108;2022-11-30T07:54:15;26.15;;;16.45;;
12591;SDS011;6361;52.120;5.108;2022-11-30T07:56:40;24.80;;;15.55;;
12591;SDS011;6361;52.120;5.108;2022-11-30T07:59:06;26.42;;;16.88;;
12591;SDS011;6361;52.120;5.108;2022-11-30T08:01:31;27.58;;;16.50;;
12591;SDS011;6361;52.120;5.108;2022-11-30T08:03:57;20.63;;;11.90;;
12591;SDS011;6361;52.120;5.108;2022-11-30T08:06:24;24.58;;;15.35;;
12591;SDS011;6361;52.120;5.108;2022-11-30T08:08:51;24.77;;;16.88;;
12591;SDS011;6361;52.120;5.108;2022-11-30T08:11:21;26.15;;;16.77;;
12591;SDS011;6361;52.120;5.108;2022-11-30T08:13:48;27.15;;;17.25;;
12591;SDS011;6361;52.120;5.108;2022-11-30T08:16:18;27.50;;;17.58;;
12591;SDS011;6361;52.120;5.108;2022-11-30T08:18:45;26.85;;;17.05;;
12591;SDS011;6361;52.120;5.108;2022-11-30T08:21:12;27.42;;;17.55;;
12591;SDS011;6361;52.120;5.108;2022-11-30T08:23:39;21.10;;;12.95;;
12591;SDS011;6361;52.120;5.108;2022-11-30T08:26:10;31.02;;;18.33;;
12591;SDS011;6361;52.120;5.108;2022-11-30T08:28:38;31.77;;;17.83;;
12591;SDS011;6361;52.120;5.108;2022-11-30T08:31:05;27.35;;;17.73;;
12591;SDS011;6361;52.120;5.108;2022-11-30T08:33:35;26.50;;;16.27;;
12591;SDS011;6361;52.120;5.108;2022-11-30T08:36:34;26.45;;;15.57;;
12591;SDS011;6361;52.120;5.108;2022-11-30T08:38:53;26.75;;;15.50;;
12591;SDS011;6361;52.120;5.108;2022-11-30T08:41:21;27.90;;;14.60;;
12591;SDS011;6361;52.120;5.108;2022-11-30T08:43:47;26.25;;;17.30;;
12591;SDS011;6361;52.120;5.108;2022-11-30T08:46:14;29.48;;;17.80;;
12591;SDS011;6361;52.120;5.108;2022-11-30T08:48:41;29.67;;;18.73;;
12591;SDS011;6361;52.120;5.108;2022-11-30T08:51:07;28.45;;;16.92;;
12591;SDS011;6361;52.120;5.108;2022-11-30T08:53:34;25.48;;;15.50;;
12591;SDS011;6361;52.120;5.108;2022-11-30T08:56:00;27.80;;;17.17;;
12591;SDS011;6361;52.120;5.108;2022-11-30T08:58:31;27.45;;;17.55;;
12591;SDS011;6361;52.120;5.108;2022-11-30T09:03:28;27.65;;;17.33;;
12591;SDS011;6361;52.120;5.108;2022-11-30T09:05:53;27.98;;;18.20;;
12591;SDS011;6361;52.120;5.108;2022-11-30T09:08:19;33.10;;;15.27;;
12591;SDS011;6361;52.120;5.108;2022-11-30T09:10:44;30.85;;;15.10;;
12591;SDS011;6361;52.120;5.108;2022-11-30T09:13:09;29.42;;;18.75;;
12591;SDS011;6361;52.120;5.108;2022-11-30T09:15:34;40.47;;;16.23;;
12591;SDS011;6361;52.120;5.108;2022-11-30T09:18:00;29.55;;;18.25;;
12591;SDS011;6361;52.120;5.108;2022-11-30T09:20:25;28.67;;;18.40;;
12591;SDS011;6361;52.120;5.108;2022-11-30T09:22:51;27.90;;;17.30;;
12591;SDS011;6361;52.120;5.108;2022-11-30T09:25:17;30.42;;;19.20;;
12591;SDS011;6361;52.120;5.108;2022-11-30T09:27:42;37.58;;;19.23;;
12591;SDS011;6361;52.120;5.108;2022-11-30T09:30:08;30.48;;;19.63;;
12591;SDS011;6361;52.120;5.108;2022-11-30T09:32:33;37.83;;;19.70;;
12591;SDS011;6361;52.120;5.108;2022-11-30T09:34:59;31.50;;;16.98;;
12591;SDS011;6361;52.120;5.108;2022-11-30T09:37:24;32.05;;;17.73;;
12591;SDS011;6361;52.120;5.108;2022-11-30T09:39:49;32.47;;;19.02;;
12591;SDS011;6361;52.120;5.108;2022-11-30T09:45:27;30.65;;;19.35;;
12591;SDS011;6361;52.120;5.108;2022-11-30T09:50:25;29.60;;;18.50;;
12591;SDS011;6361;52.120;5.108;2022-11-30T09:52:56;29.02;;;17.50;;
12591;SDS011;6361;52.120;5.108;2022-11-30T09:55:34;32.38;;;18.15;;
12591;SDS011;6361;52.120;5.108;2022-11-30T09:58:03;29.73;;;19.65;;
12591;SDS011;6361;52.120;5.108;2022-11-30T10:00:29;30.63;;;19.67;;
12591;SDS011;6361;52.120;5.108;2022-11-30T10:02:57;30.70;;;19.45;;
12591;SDS011;6361;52.120;5.108;2022-11-30T10:10:40;34.92;;;20.58;;
12591;SDS011;6361;52.120;5.108;2022-11-30T10:13:15;32.28;;;21.23;;
12591;SDS011;6361;52.120;5.108;2022-11-30T10:21:16;31.50;;;20.20;;
12591;SDS011;6361;52.120;5.108;2022-11-30T10:24:14;34.60;;;19.98;;
12591;SDS011;6361;52.120;5.108;2022-11-30T10:26:56;33.08;;;20.90;;
12591;SDS011;6361;52.120;5.108;2022-11-30T10:32:04;37.97;;;21.33;;
12591;SDS011;6361;52.120;5.108;2022-11-30T10:34:45;30.45;;;18.65;;
12591;SDS011;6361;52.120;5.108;2022-11-30T10:42:43;33.15;;;20.45;;
12591;SDS011;6361;52.120;5.108;2022-11-30T10:45:20;32.97;;;19.80;;
12591;SDS011;6361;52.120;5.108;2022-11-30T10:48:00;33.10;;;20.35;;
12591;SDS011;6361;52.120;5.108;2022-11-30T10:50:30;29.97;;;17.77;;
12591;SDS011;6361;52.120;5.108;2022-11-30T10:52:57;26.60;;;15.93;;
12591;SDS011;6361;52.120;5.108;2022-11-30T10:55:25;28.50;;;18.65;;
12591;SDS011;6361;52.120;5.108;2022-11-30T10:57:53;28.75;;;17.23;;
12591;SDS011;6361;52.120;5.108;2022-11-30T11:00:22;34.10;;;20.08;;
12591;SDS011;6361;52.120;5.108;2022-11-30T11:02:49;32.63;;;20.15;;
12591;SDS011;6361;52.120;5.108;2022-11-30T11:07:44;30.25;;;18.70;;
12591;SDS011;6361;52.120;5.108;2022-11-30T11:11:04;32.60;;;19.55;;
12591;SDS011;6361;52.120;5.108;2022-11-30T11:13:45;30.33;;;20.15;;
12591;SDS011;6361;52.120;5.108;2022-11-30T11:16:06;31.70;;;20.05;;
12591;SDS011;6361;52.120;5.108;2022-11-30T11:18:33;27.98;;;17.10;;
12591;SDS011;6361;52.120;5.108;2022-11-30T11:21:04;31.95;;;20.35;;
12591;SDS011;6361;52.120;5.108;2022-11-30T11:23:35;29.95;;;19.92;;
12591;SDS011;6361;52.120;5.108;2022-11-30T11:26:02;30.45;;;19.50;;
12591;SDS011;6361;52.120;5.108;2022-11-30T11:28:29;33.67;;;22.08;;
12591;SDS011;6361;52.120;5.108;2022-11-30T11:30:55;36.45;;;22.08;;
12591;SDS011;6361;52.120;5.108;2022-11-30T11:33:27;34.42;;;22.27;;
12591;SDS011;6361;52.120;5.108;2022-11-30T11:35:54;33.58;;;20.85;;
12591;SDS011;6361;52.120;5.108;2022-11-30T11:38:45;34.60;;;19.13;;
12591;SDS011;6361;52.120;5.108;2022-11-30T11:41:14;34.70;;;22.58;;
12591;SDS011;6361;52.120;5.108;2022-11-30T11:46:57;36.40;;;21.05;;
12591;SDS011;6361;52.120;5.108;2022-11-30T11:49:27;35.60;;;21.73;;
12591;SDS011;6361;52.120;5.108;2022-11-30T11:52:13;32.78;;;20.23;;
12591;SDS011;6361;52.120;5.108;2022-11-30T11:54:45;33.72;;;21.25;;
12591;SDS011;6361;52.120;5.108;2022-11-30T11:57:14;33.17;;;21.60;;
12591;SDS011;6361;52.120;5.108;2022-11-30T12:12:55;34.40;;;22.10;;
12591;SDS011;6361;52.120;5.108;2022-11-30T12:15:27;33.33;;;21.00;;
12591;SDS011;6361;52.120;5.108;2022-11-30T12:20:53;37.05;;;22.50;;
12591;SDS011;6361;52.120;5.108;2022-11-30T12:26:00;35.00;;;21.67;;
12591;SDS011;6361;52.120;5.108;2022-11-30T12:28:40;30.67;;;20.48;;
12591;SDS011;6361;52.120;5.108;2022-11-30T12:31:10;33.05;;;20.77;;
12591;SDS011;6361;52.120;5.108;2022-11-30T12:33:45;32.20;;;20.45;;
12591;SDS011;6361;52.120;5.108;2022-11-30T12:39:07;29.52;;;20.23;;
12591;SDS011;6361;52.120;5.108;2022-11-30T12:41:48;31.20;;;19.92;;
12591;SDS011;6361;52.120;5.108;2022-11-30T12:49:53;29.23;;;18.73;;
12591;SDS011;6361;52.120;5.108;2022-11-30T12:58:24;27.02;;;18.48;;
12591;SDS011;6361;52.120;5.108;2022-11-30T13:01:15;29.23;;;19.23;;
12591;SDS011;6361;52.120;5.108;2022-11-30T13:06:13;32.90;;;19.02;;
12591;SDS011;6361;52.120;5.108;2022-11-30T13:11:26;27.40;;;17.73;;
12591;SDS011;6361;52.120;5.108;2022-11-30T13:14:00;28.80;;;18.80;;
12591;SDS011;6361;52.120;5.108;2022-11-30T13:16:27;32.75;;;19.08;;
12591;SDS011;6361;52.120;5.108;2022-11-30T13:18:55;30.98;;;19.30;;
12591;SDS011;6361;52.120;5.108;2022-11-30T13:24:05;27.88;;;18.27;;
12591;SDS011;6361;52.120;5.108;2022-11-30T13:26:42;28.88;;;17.52;;
12591;SDS011;6361;52.120;5.108;2022-11-30T13:34:31;28.52;;;17.63;;
12591;SDS011;6361;52.120;5.108;2022-11-30T13:39:32;28.45;;;17.58;;
12591;SDS011;6361;52.120;5.108;2022-11-30T13:42:10;29.15;;;17.80;;
12591;SDS011;6361;52.120;5.108;2022-11-30T13:44:47;33.13;;;18.92;;
12591;SDS011;6361;52.120;5.108;2022-11-30T13:47:14;27.67;;;17.77;;
12591;SDS011;6361;52.120;5.108;2022-11-30T13:49:42;27.63;;;18.05;;
12591;SDS011;6361;52.120;5.108;2022-11-30T13:52:10;29.70;;;18.10;;
12591;SDS011;6361;52.120;5.108;2022-11-30T13:54:45;30.80;;;19.27;;
12591;SDS011;6361;52.120;5.108;2022-11-30T13:59:46;29.35;;;18.10;;
12591;SDS011;6361;52.120;5.108;2022-11-30T14:05:19;29.42;;;19.15;;
12591;SDS011;6361;52.120;5.108;2022-11-30T14:10:27;29.85;;;19.13;;
12591;SDS011;6361;52.120;5.108;2022-11-30T14:13:04;27.65;;;17.85;;
12591;SDS011;6361;52.120;5.108;2022-11-30T14:15:54;28.35;;;16.92;;
12591;SDS011;6361;52.120;5.108;2022-11-30T14:20:49;23.55;;;15.63;;
12591;SDS011;6361;52.120;5.108;2022-11-30T14:23:20;28.48;;;17.90;;
12591;SDS011;6361;52.120;5.108;2022-11-30T14:25:50;28.05;;;16.88;;
12591;SDS011;6361;52.120;5.108;2022-11-30T14:28:19;26.63;;;17.13;;
12591;SDS011;6361;52.120;5.108;2022-11-30T14:30:47;28.85;;;16.95;;
12591;SDS011;6361;52.120;5.108;2022-11-30T14:33:23;28.40;;;16.92;;
12591;SDS011;6361;52.120;5.108;2022-11-30T14:35:53;29.08;;;18.50;;
12591;SDS011;6361;52.120;5.108;2022-11-30T14:38:24;31.73;;;18.67;;
12591;SDS011;6361;52.120;5.108;2022-11-30T14:40:54;27.42;;;16.00;;
12591;SDS011;6361;52.120;5.108;2022-11-30T14:43:20;29.52;;;18.95;;
12591;SDS011;6361;52.120;5.108;2022-11-30T14:45:56;30.35;;;18.83;;
12591;SDS011;6361;52.120;5.108;2022-11-30T14:48:22;28.92;;;18.58;;
12591;SDS011;6361;52.120;5.108;2022-11-30T14:50:52;32.55;;;19.40;;
12591;SDS011;6361;52.120;5.108;2022-11-30T14:53:41;38.10;;;23.75;;
12591;SDS011;6361;52.120;5.108;2022-11-30T14:58:49;34.35;;;20.00;;
12591;SDS011;6361;52.120;5.108;2022-11-30T15:03:46;32.22;;;19.90;;
12591;SDS011;6361;52.120;5.108;2022-11-30T15:06:13;35.03;;;20.67;;
12591;SDS011;6361;52.120;5.108;2022-11-30T15:08:40;40.78;;;23.20;;
12591;SDS011;6361;52.120;5.108;2022-11-30T15:11:08;36.95;;;22.25;;
12591;SDS011;6361;52.120;5.108;2022-11-30T15:13:41;35.05;;;20.23;;
12591;SDS011;6361;52.120;5.108;2022-11-30T15:16:13;27.92;;;17.80;;
12591;SDS011;6361;52.120;5.108;2022-11-30T15:18:42;31.20;;;19.70;;
12591;SDS011;6361;52.120;5.108;2022-11-30T15:21:11;31.67;;;18.95;;
12591;SDS011;6361;52.120;5.108;2022-11-30T15:23:41;29.75;;;17.58;;
12591;SDS011;6361;52.120;5.108;2022-11-30T15:26:11;32.60;;;18.35;;
12591;SDS011;6361;52.120;5.108;2022-11-30T15:28:40;30.77;;;18.58;;
12591;SDS011;6361;52.120;5.108;2022-11-30T15:31:08;31.48;;;18.73;;
12591;SDS011;6361;52.120;5.108;2022-11-30T15:33:47;31.98;;;19.88;;
12591;SDS011;6361;52.120;5.108;2022-11-30T15:36:14;29.08;;;18.83;;
12591;SDS011;6361;52.120;5.108;2022-11-30T15:38:40;31.83;;;18.58;;
12591;SDS011;6361;52.120;5.108;2022-11-30T15:41:13;28.70;;;16.95;;
12591;SDS011;6361;52.120;5.108;2022-11-30T15:43:46;26.88;;;15.65;;
12591;SDS011;6361;52.120;5.108;2022-11-30T15:46:26;31.33;;;18.85;;
12591;SDS011;6361;52.120;5.108;2022-11-30T15:49:00;31.15;;;18.50;;
12591;SDS011;6361;52.120;5.108;2022-11-30T15:51:35;29.20;;;18.05;;
12591;SDS011;6361;52.120;5.108;2022-11-30T15:54:01;33.92;;;18.80;;
12591;SDS011;6361;52.120;5.108;2022-11-30T15:56:27;34.72;;;20.50;;
12591;SDS011;6361;52.120;5.108;2022-11-30T16:01:24;35.13;;;19.58;;
12591;SDS011;6361;52.120;5.108;2022-11-30T16:06:18;26.98;;;16.83;;
12591;SDS011;6361;52.120;5.108;2022-11-30T16:08:45;36.40;;;20.40;;
12591;SDS011;6361;52.120;5.108;2022-11-30T16:11:10;28.48;;;17.83;;
12591;SDS011;6361;52.120;5.108;2022-11-30T16:13:36;30.02;;;18.05;;
12591;SDS011;6361;52.120;5.108;2022-11-30T16:16:01;29.92;;;16.88;;
12591;SDS011;6361;52.120;5.108;2022-11-30T16:18:27;31.50;;;19.13;;
12591;SDS011;6361;52.120;5.108;2022-11-30T16:20:53;37.05;;;20.45;;
12591;SDS011;6361;52.120;5.108;2022-11-30T16:23:20;36.45;;;21.17;;
12591;SDS011;6361;52.120;5.108;2022-11-30T16:25:46;32.90;;;19.98;;
12591;SDS011;6361;52.120;5.108;2022-11-30T16:28:13;35.25;;;19.90;;
12591;SDS011;6361;52.120;5.108;2022-11-30T16:30:40;34.20;;;19.98;;
12591;SDS011;6361;52.120;5.108;2022-11-30T16:33:10;35.00;;;21.20;;
12591;SDS011;6361;52.120;5.108;2022-11-30T16:35:49;37.55;;;20.92;;
12591;SDS011;6361;52.120;5.108;2022-11-30T16:38:16;31.95;;;19.02;;
12591;SDS011;6361;52.120;5.108;2022-11-30T16:40:42;34.28;;;20.58;;